Weather observations for the past three days for
El Monte
Imperial (Metric)
Date Time (pdt) Wind (mph) Vis. (mi.) Weather Sky Cond. Temperature (ºF) Relative Humidity Wind Chill (°F) Heat Index (°F) Pressure Precipitation (in)
Air Dwpt 6 hour altimeter (in) sea level (mb) 1 hr 3 hr 6 hr
Max. Min.
05 14:45 SW 7 10.00 Fair CLR 91.4 42.8 18% 88 29.9 0.0
05 13:45 S 7 10.00 Fair CLR 89.6 44.6 21% 86 29.91 0.0
05 10:45 SE 6 10.00 Fair CLR 80.6 59 48% 81 29.96 0.0
05 09:45 NE 3 10.00 Fair CLR 75.2 57.2 54% 78 29.96 0.0
05 08:45 Calm 10.00 Fair CLR 69.8 55.4 60% 29.96 0.0
05 07:45 Calm 10.00 Fair CLR 66.2 51.8 60% 29.94 0.0
04 18:45 S 10 10.00 Fair CLR 80.6 57.2 45% 81 29.88 0.0
04 17:45 S 10 10.00 Fair CLR 82.4 50 32% 81 29.88 0.0
04 16:45 S 10 10.00 Fair CLR 84.2 48.2 29% 82 29.88 0.0
04 15:45 SW 7 G 13 10.00 Fair CLR 84.2 51.8 33% 82 29.89 0.0
04 14:45 S 13 10.00 Fair CLR 84.2 53.6 35% 83 29.89 0.0
04 13:45 SE 6 10.00 Fair CLR 84.2 53.6 35% 83 29.9 0.0
04 11:45 SE 3 10.00 Fair CLR 78.8 59 51% 80 29.94 0.0
04 10:45 Calm 10.00 A Few Clouds FEW024 75.2 60.8 61% 77 29.95 0.0
04 09:45 SW 5 10.00 Partly Cloudy SCT023 73.4 60.8 65% 29.94 0.0
04 08:45 Vrbl 3 10.00 Partly Cloudy SCT017 69.8 60.8 73% 29.93 0.0
04 07:47 Vrbl 3 10.00 Partly Cloudy SCT017 66.2 60.8 83% 29.93 0.0
03 18:45 SW 6 10.00 Fair CLR 77 60.8 57% 79 29.87 0.0
03 16:45 SW 12 G 18 10.00 Fair CLR 80.6 60.8 51% 81 29.86 0.0
03 15:45 S 10 G 18 10.00 Fair CLR 84.2 57.2 40% 83 29.87 0.0
03 14:45 S 7 G 13 10.00 Fair CLR 82.4 55.4 40% 82 29.89 0.0
03 13:45 S 7 10.00 Fair CLR 82.4 57.2 42% 82 29.9 0.0
03 12:45 S 8 10.00 Fair CLR 80.6 57.2 45% 81 29.92 0.0
03 11:47 SE 8 10.00 A Few Clouds FEW040 78.8 59 51% 80 29.95 0.0
03 10:50 SW 3 10.00 A Few Clouds FEW050 75.2 59 57% 78 29.96 0.0
03 09:45 Vrbl 3 10.00 Partly Cloudy SCT030 71.6 59 65% 29.97 0.0
03 08:48 Vrbl 5 10.00 Partly Cloudy SCT030 69.8 59 69% 29.97 0.0
03 07:45 Calm 10.00 Fair CLR 66.2 51.8 60% 29.97 0.0
02 19:51 SW 6 10.00 Fair CLR 73.4 55.4 53% 29.95 0.0
02 18:47 SW 8 10.00 Fair CLR 78.8 53.6 42% 79 29.93 0.0
02 17:47 SW 9 10.00 Fair CLR 80.6 53.6 39% 80 29.93 0.0
02 16:45 S 8 G 15 10.00 Fair CLR 82.4 55.4 40% 82 29.93 0.0
02 15:45 S 9 G 17 10.00 Fair CLR 84.2 53.6 35% 83 29.94 0.0
Date Time (pdt) Wind (mph) Vis. (mi.) Weather Sky Cond. Air Dwpt Max. Min. Relative Humidity Wind Chill (°F) Heat Index (°F) altimeter (in) sea level (mb) 1 hr 3 hr 6 hr
6 hour
Temperature (ºF) Pressure Precipitation (in)